sensor_id;sensor_type;location;lat;lon;timestamp;temperature;humidity
42145;DHT22;27813;43.516;11.890;2023-07-08T04:33:17;16.80;67.00
42145;DHT22;27813;43.516;11.890;2023-07-08T04:37:24;17.00;66.80
42145;DHT22;27813;43.516;11.890;2023-07-08T04:41:28;17.50;66.20
42145;DHT22;27813;43.516;11.890;2023-07-08T04:45:32;18.60;63.40
42145;DHT22;27813;43.516;11.890;2023-07-08T04:49:35;19.60;59.80
42145;DHT22;27813;43.516;11.890;2023-07-08T04:53:39;20.40;58.00
42145;DHT22;27813;43.516;11.890;2023-07-08T04:57:43;21.50;55.50
42145;DHT22;27813;43.516;11.890;2023-07-08T05:01:47;22.30;53.30
42145;DHT22;27813;43.516;11.890;2023-07-08T05:05:52;23.10;51.50
42145;DHT22;27813;43.516;11.890;2023-07-08T05:09:57;24.00;50.00
42145;DHT22;27813;43.516;11.890;2023-07-08T05:14:02;24.80;48.40
42145;DHT22;27813;43.516;11.890;2023-07-08T05:18:06;25.60;46.80
42145;DHT22;27813;43.516;11.890;2023-07-08T05:22:10;26.40;45.60
42145;DHT22;27813;43.516;11.890;2023-07-08T05:26:14;27.00;44.50
42145;DHT22;27813;43.516;11.890;2023-07-08T05:30:18;27.50;43.60
42145;DHT22;27813;43.516;11.890;2023-07-08T05:34:23;28.20;42.70
42145;DHT22;27813;43.516;11.890;2023-07-08T05:38:27;28.80;41.90
42145;DHT22;27813;43.516;11.890;2023-07-08T05:42:32;29.50;41.10
42145;DHT22;27813;43.516;11.890;2023-07-08T05:46:36;30.00;40.10
42145;DHT22;27813;43.516;11.890;2023-07-08T05:50:41;30.30;39.30
42145;DHT22;27813;43.516;11.890;2023-07-08T05:54:44;30.50;38.40
42145;DHT22;27813;43.516;11.890;2023-07-08T05:58:48;31.00;38.00
42145;DHT22;27813;43.516;11.890;2023-07-08T06:02:52;31.80;36.90
42145;DHT22;27813;43.516;11.890;2023-07-08T06:06:57;31.80;36.60
42145;DHT22;27813;43.516;11.890;2023-07-08T06:11:01;31.80;37.20
42145;DHT22;27813;43.516;11.890;2023-07-08T06:15:05;32.30;36.80
42145;DHT22;27813;43.516;11.890;2023-07-08T06:19:09;33.10;35.80
42145;DHT22;27813;43.516;11.890;2023-07-08T06:23:13;32.60;35.90
42145;DHT22;27813;43.516;11.890;2023-07-08T06:27:17;31.20;37.60
42145;DHT22;27813;43.516;11.890;2023-07-08T06:31:21;30.40;39.10
42145;DHT22;27813;43.516;11.890;2023-07-08T06:35:25;31.40;38.30
42145;DHT22;27813;43.516;11.890;2023-07-08T06:39:31;33.40;36.20
42145;DHT22;27813;43.516;11.890;2023-07-08T06:43:35;34.00;35.20
42145;DHT22;27813;43.516;11.890;2023-07-08T06:47:57;32.90;35.80
42145;DHT22;27813;43.516;11.890;2023-07-08T06:52:01;31.70;37.40
42145;DHT22;27813;43.516;11.890;2023-07-08T06:56:05;31.00;38.10
42145;DHT22;27813;43.516;11.890;2023-07-08T07:00:11;31.30;37.30
42145;DHT22;27813;43.516;11.890;2023-07-08T07:04:15;31.70;36.20
42145;DHT22;27813;43.516;11.890;2023-07-08T07:08:19;31.70;35.90
42145;DHT22;27813;43.516;11.890;2023-07-08T07:12:26;30.80;36.80
42145;DHT22;27813;43.516;11.890;2023-07-08T07:16:30;30.20;37.80
42145;DHT22;27813;43.516;11.890;2023-07-08T07:20:36;30.10;38.30
42145;DHT22;27813;43.516;11.890;2023-07-08T07:24:41;30.30;38.20
42145;DHT22;27813;43.516;11.890;2023-07-08T07:28:45;30.40;38.20
42145;DHT22;27813;43.516;11.890;2023-07-08T07:32:48;30.60;38.00
42145;DHT22;27813;43.516;11.890;2023-07-08T07:36:53;30.90;37.50
42145;DHT22;27813;43.516;11.890;2023-07-08T07:41:03;31.10;37.30
42145;DHT22;27813;43.516;11.890;2023-07-08T07:45:10;31.40;37.10
42145;DHT22;27813;43.516;11.890;2023-07-08T07:49:14;31.30;37.20
42145;DHT22;27813;43.516;11.890;2023-07-08T07:53:18;31.00;37.60
42145;DHT22;27813;43.516;11.890;2023-07-08T07:57:22;30.80;37.90
42145;DHT22;27813;43.516;11.890;2023-07-08T08:01:26;30.70;38.10
42145;DHT22;27813;43.516;11.890;2023-07-08T08:05:30;30.70;38.20
42145;DHT22;27813;43.516;11.890;2023-07-08T08:09:34;30.80;38.30
42145;DHT22;27813;43.516;11.890;2023-07-08T08:13:38;31.50;37.80
42145;DHT22;27813;43.516;11.890;2023-07-08T08:17:42;32.10;36.90
42145;DHT22;27813;43.516;11.890;2023-07-08T08:21:53;32.50;36.30
42145;DHT22;27813;43.516;11.890;2023-07-08T08:25:57;32.70;36.00
42145;DHT22;27813;43.516;11.890;2023-07-08T08:30:01;33.00;35.50
42145;DHT22;27813;43.516;11.890;2023-07-08T08:34:05;33.30;35.20
42145;DHT22;27813;43.516;11.890;2023-07-08T08:38:09;33.40;34.90
42145;DHT22;27813;43.516;11.890;2023-07-08T08:42:45;33.30;34.40
42145;DHT22;27813;43.516;11.890;2023-07-08T08:47:01;33.00;34.30
42145;DHT22;27813;43.516;11.890;2023-07-08T08:51:14;32.50;34.40
42145;DHT22;27813;43.516;11.890;2023-07-08T08:55:19;32.20;34.50
42145;DHT22;27813;43.516;11.890;2023-07-08T08:59:37;32.00;35.00
42145;DHT22;27813;43.516;11.890;2023-07-08T09:03:49;32.10;35.10
42145;DHT22;27813;43.516;11.890;2023-07-08T09:08:14;32.40;35.00
42145;DHT22;27813;43.516;11.890;2023-07-08T09:12:23;32.50;34.70
42145;DHT22;27813;43.516;11.890;2023-07-08T09:16:52;32.80;34.80
42145;DHT22;27813;43.516;11.890;2023-07-08T09:21:04;33.60;34.30
42145;DHT22;27813;43.516;11.890;2023-07-08T09:25:26;34.60;33.40
42145;DHT22;27813;43.516;11.890;2023-07-08T09:29:33;35.30;32.30
42145;DHT22;27813;43.516;11.890;2023-07-08T09:33:40;35.40;31.60
42145;DHT22;27813;43.516;11.890;2023-07-08T09:37:46;35.00;31.70
42145;DHT22;27813;43.516;11.890;2023-07-08T09:41:53;34.60;32.00
42145;DHT22;27813;43.516;11.890;2023-07-08T09:45:59;34.50;32.00
42145;DHT22;27813;43.516;11.890;2023-07-08T09:50:27;34.50;31.90
42145;DHT22;27813;43.516;11.890;2023-07-08T09:54:30;35.00;31.30
42145;DHT22;27813;43.516;11.890;2023-07-08T09:58:40;36.70;30.00
42145;DHT22;27813;43.516;11.890;2023-07-08T10:02:54;37.90;28.80
42145;DHT22;27813;43.516;11.890;2023-07-08T10:06:59;39.00;28.20
42145;DHT22;27813;43.516;11.890;2023-07-08T10:11:20;40.20;27.40
42145;DHT22;27813;43.516;11.890;2023-07-08T10:15:38;40.80;26.50
42145;DHT22;27813;43.516;11.890;2023-07-08T10:19:43;41.10;26.00
42145;DHT22;27813;43.516;11.890;2023-07-08T10:23:54;41.60;25.80
42145;DHT22;27813;43.516;11.890;2023-07-08T10:28:29;41.10;25.60
42145;DHT22;27813;43.516;11.890;2023-07-08T10:59:39;41.90;24.70
42145;DHT22;27813;43.516;11.890;2023-07-08T11:08:39;42.10;23.80
42145;DHT22;27813;43.516;11.890;2023-07-08T11:12:48;41.80;23.50
42145;DHT22;27813;43.516;11.890;2023-07-08T11:21:36;42.10;23.40
42145;DHT22;27813;43.516;11.890;2023-07-08T11:25:41;42.20;23.20
42145;DHT22;27813;43.516;11.890;2023-07-08T11:29:49;42.10;23.40
42145;DHT22;27813;43.516;11.890;2023-07-08T11:33:54;42.30;23.20
42145;DHT22;27813;43.516;11.890;2023-07-08T11:38:01;42.70;22.90
42145;DHT22;27813;43.516;11.890;2023-07-08T11:42:25;43.20;22.60
42145;DHT22;27813;43.516;11.890;2023-07-08T11:46:34;43.70;22.30
42145;DHT22;27813;43.516;11.890;2023-07-08T11:50:42;43.80;22.50
42145;DHT22;27813;43.516;11.890;2023-07-08T11:54:48;44.00;22.50
42145;DHT22;27813;43.516;11.890;2023-07-08T11:59:03;44.00;22.40
42145;DHT22;27813;43.516;11.890;2023-07-08T12:03:21;44.00;22.30
42145;DHT22;27813;43.516;11.890;2023-07-08T12:07:41;44.10;22.10
42145;DHT22;27813;43.516;11.890;2023-07-08T12:11:49;44.10;21.90
42145;DHT22;27813;43.516;11.890;2023-07-08T12:15:55;44.10;22.00
42145;DHT22;27813;43.516;11.890;2023-07-08T12:20:00;44.00;21.80
42145;DHT22;27813;43.516;11.890;2023-07-08T12:24:13;44.10;21.90
42145;DHT22;27813;43.516;11.890;2023-07-08T12:28:18;44.10;22.00
42145;DHT22;27813;43.516;11.890;2023-07-08T12:32:23;44.10;22.10
42145;DHT22;27813;43.516;11.890;2023-07-08T12:36:33;44.10;22.00
42145;DHT22;27813;43.516;11.890;2023-07-08T12:40:37;44.10;22.00
42145;DHT22;27813;43.516;11.890;2023-07-08T12:44:41;44.10;21.90
42145;DHT22;27813;43.516;11.890;2023-07-08T12:48:47;44.00;22.00
42145;DHT22;27813;43.516;11.890;2023-07-08T12:52:52;43.80;22.00
42145;DHT22;27813;43.516;11.890;2023-07-08T12:56:56;43.50;22.30
42145;DHT22;27813;43.516;11.890;2023-07-08T13:01:02;43.30;22.30
42145;DHT22;27813;43.516;11.890;2023-07-08T13:05:10;43.40;22.40
42145;DHT22;27813;43.516;11.890;2023-07-08T13:09:34;43.10;22.40
42145;DHT22;27813;43.516;11.890;2023-07-08T13:13:49;43.00;22.50
42145;DHT22;27813;43.516;11.890;2023-07-08T13:17:54;43.00;22.80
42145;DHT22;27813;43.516;11.890;2023-07-08T13:21:59;43.00;22.90
42145;DHT22;27813;43.516;11.890;2023-07-08T13:26:17;43.00;23.00
42145;DHT22;27813;43.516;11.890;2023-07-08T13:30:25;42.80;22.80
42145;DHT22;27813;43.516;11.890;2023-07-08T13:34:30;42.60;22.90
42145;DHT22;27813;43.516;11.890;2023-07-08T13:38:38;42.40;23.00
42145;DHT22;27813;43.516;11.890;2023-07-08T13:42:52;42.10;23.10
42145;DHT22;27813;43.516;11.890;2023-07-08T13:46:58;41.80;23.20
42145;DHT22;27813;43.516;11.890;2023-07-08T13:55:17;41.30;23.60
42145;DHT22;27813;43.516;11.890;2023-07-08T13:59:26;41.30;23.60
42145;DHT22;27813;43.516;11.890;2023-07-08T14:03:30;41.30;23.60
42145;DHT22;27813;43.516;11.890;2023-07-08T14:07:34;41.20;23.60
42145;DHT22;27813;43.516;11.890;2023-07-08T14:11:38;41.30;23.60
42145;DHT22;27813;43.516;11.890;2023-07-08T14:15:42;41.30;23.60
42145;DHT22;27813;43.516;11.890;2023-07-08T14:19:46;41.50;23.50
42145;DHT22;27813;43.516;11.890;2023-07-08T14:23:51;41.50;23.40
42145;DHT22;27813;43.516;11.890;2023-07-08T14:27:54;41.40;23.30
42145;DHT22;27813;43.516;11.890;2023-07-08T14:31:59;41.40;23.50
42145;DHT22;27813;43.516;11.890;2023-07-08T14:36:04;41.40;23.50
42145;DHT22;27813;43.516;11.890;2023-07-08T14:40:47;41.30;23.70
42145;DHT22;27813;43.516;11.890;2023-07-08T14:44:52;41.30;23.40
42145;DHT22;27813;43.516;11.890;2023-07-08T14:48:56;41.20;23.70
42145;DHT22;27813;43.516;11.890;2023-07-08T14:53:00;41.10;23.80
42145;DHT22;27813;43.516;11.890;2023-07-08T14:57:07;40.80;23.80
42145;DHT22;27813;43.516;11.890;2023-07-08T15:01:19;40.70;24.00
42145;DHT22;27813;43.516;11.890;2023-07-08T15:05:25;40.50;24.20
42145;DHT22;27813;43.516;11.890;2023-07-08T15:09:31;40.40;24.30
42145;DHT22;27813;43.516;11.890;2023-07-08T15:13:35;40.30;24.40
42145;DHT22;27813;43.516;11.890;2023-07-08T15:17:41;40.30;24.70
42145;DHT22;27813;43.516;11.890;2023-07-08T15:21:46;40.30;24.80
42145;DHT22;27813;43.516;11.890;2023-07-08T15:25:50;40.30;24.80
42145;DHT22;27813;43.516;11.890;2023-07-08T15:29:55;40.30;24.80
42145;DHT22;27813;43.516;11.890;2023-07-08T15:33:59;40.20;24.80
42145;DHT22;27813;43.516;11.890;2023-07-08T15:38:03;40.30;24.80
42145;DHT22;27813;43.516;11.890;2023-07-08T15:42:12;40.30;24.70
42145;DHT22;27813;43.516;11.890;2023-07-08T15:46:18;40.30;24.80
42145;DHT22;27813;43.516;11.890;2023-07-08T15:50:25;40.20;24.80
42145;DHT22;27813;43.516;11.890;2023-07-08T15:54:30;40.20;24.90
42145;DHT22;27813;43.516;11.890;2023-07-08T15:58:36;40.20;25.00
42145;DHT22;27813;43.516;11.890;2023-07-08T16:02:40;40.10;25.00
42145;DHT22;27813;43.516;11.890;2023-07-08T16:06:44;40.20;25.00
42145;DHT22;27813;43.516;11.890;2023-07-08T16:10:57;40.10;25.10
42145;DHT22;27813;43.516;11.890;2023-07-08T16:15:03;40.00;25.30
42145;DHT22;27813;43.516;11.890;2023-07-08T16:19:11;39.90;25.60
42145;DHT22;27813;43.516;11.890;2023-07-08T16:23:17;39.70;25.70
42145;DHT22;27813;43.516;11.890;2023-07-08T16:27:21;39.60;25.90
42145;DHT22;27813;43.516;11.890;2023-07-08T16:31:26;39.60;26.00
42145;DHT22;27813;43.516;11.890;2023-07-08T16:35:33;39.60;26.00
42145;DHT22;27813;43.516;11.890;2023-07-08T16:39:43;39.60;26.10
42145;DHT22;27813;43.516;11.890;2023-07-08T16:43:46;39.50;26.10
42145;DHT22;27813;43.516;11.890;2023-07-08T16:47:51;39.10;26.30
42145;DHT22;27813;43.516;11.890;2023-07-08T16:51:55;38.40;26.70
42145;DHT22;27813;43.516;11.890;2023-07-08T16:55:59;37.60;27.30
42145;DHT22;27813;43.516;11.890;2023-07-08T17:00:08;36.90;27.80
42145;DHT22;27813;43.516;11.890;2023-07-08T17:04:14;36.40;28.30
42145;DHT22;27813;43.516;11.890;2023-07-08T17:08:18;35.90;28.80
42145;DHT22;27813;43.516;11.890;2023-07-08T17:12:22;35.50;29.10
42145;DHT22;27813;43.516;11.890;2023-07-08T17:16:29;35.10;29.50
42145;DHT22;27813;43.516;11.890;2023-07-08T17:20:36;34.90;29.80
42145;DHT22;27813;43.516;11.890;2023-07-08T17:24:40;34.60;30.20
42145;DHT22;27813;43.516;11.890;2023-07-08T17:28:44;34.40;30.40
42145;DHT22;27813;43.516;11.890;2023-07-08T17:32:52;34.20;30.80
42145;DHT22;27813;43.516;11.890;2023-07-08T17:36:58;34.00;31.10
42145;DHT22;27813;43.516;11.890;2023-07-08T17:41:02;33.80;31.40
42145;DHT22;27813;43.516;11.890;2023-07-08T17:45:08;33.60;31.80
42145;DHT22;27813;43.516;11.890;2023-07-08T17:49:13;33.40;32.10
42145;DHT22;27813;43.516;11.890;2023-07-08T17:53:18;33.20;32.60
42145;DHT22;27813;43.516;11.890;2023-07-08T17:57:22;33.10;33.30
42145;DHT22;27813;43.516;11.890;2023-07-08T18:01:29;33.10;34.10
42145;DHT22;27813;43.516;11.890;2023-07-08T18:05:33;33.00;35.00
42145;DHT22;27813;43.516;11.890;2023-07-08T18:09:37;33.00;35.70
42145;DHT22;27813;43.516;11.890;2023-07-08T18:13:41;32.80;36.60
42145;DHT22;27813;43.516;11.890;2023-07-08T18:17:47;32.40;37.40
42145;DHT22;27813;43.516;11.890;2023-07-08T18:21:54;32.00;38.20
42145;DHT22;27813;43.516;11.890;2023-07-08T18:25:58;31.60;39.30
42145;DHT22;27813;43.516;11.890;2023-07-08T18:30:04;31.10;40.10
42145;DHT22;27813;43.516;11.890;2023-07-08T18:34:08;30.60;40.80
42145;DHT22;27813;43.516;11.890;2023-07-08T18:38:12;30.20;41.60
42145;DHT22;27813;43.516;11.890;2023-07-08T18:42:16;29.80;42.40
42145;DHT22;27813;43.516;11.890;2023-07-08T18:46:21;29.30;43.20
42145;DHT22;27813;43.516;11.890;2023-07-08T18:50:25;28.80;44.20
42145;DHT22;27813;43.516;11.890;2023-07-08T18:54:29;28.30;45.10
42145;DHT22;27813;43.516;11.890;2023-07-08T18:58:33;27.90;46.00
42145;DHT22;27813;43.516;11.890;2023-07-08T19:02:52;27.50;46.60
42145;DHT22;27813;43.516;11.890;2023-07-08T19:06:57;27.20;47.30
42145;DHT22;27813;43.516;11.890;2023-07-08T19:11:01;27.00;47.50
42145;DHT22;27813;43.516;11.890;2023-07-08T19:15:23;26.90;47.80
42145;DHT22;27813;43.516;11.890;2023-07-08T19:19:28;26.70;48.50
42145;DHT22;27813;43.516;11.890;2023-07-08T19:23:31;26.50;49.00
42145;DHT22;27813;43.516;11.890;2023-07-08T19:27:35;26.20;49.50
42145;DHT22;27813;43.516;11.890;2023-07-08T19:31:43;26.00;49.80
42145;DHT22;27813;43.516;11.890;2023-07-08T19:35:49;25.90;50.20
42145;DHT22;27813;43.516;11.890;2023-07-08T19:39:53;25.80;50.50
42145;DHT22;27813;43.516;11.890;2023-07-08T19:43:59;25.60;51.00
42145;DHT22;27813;43.516;11.890;2023-07-08T19:48:07;25.50;51.20
42145;DHT22;27813;43.516;11.890;2023-07-08T19:52:12;25.40;51.40
42145;DHT22;27813;43.516;11.890;2023-07-08T19:56:18;25.30;51.70
42145;DHT22;27813;43.516;11.890;2023-07-08T20:00:30;25.20;52.10
42145;DHT22;27813;43.516;11.890;2023-07-08T20:04:34;25.10;52.40
42145;DHT22;27813;43.516;11.890;2023-07-08T20:08:40;25.00;52.60
42145;DHT22;27813;43.516;11.890;2023-07-08T20:12:45;25.00;52.80
42145;DHT22;27813;43.516;11.890;2023-07-08T20:16:49;24.80;53.10
42145;DHT22;27813;43.516;11.890;2023-07-08T20:20:53;24.70;53.30
42145;DHT22;27813;43.516;11.890;2023-07-08T20:25:01;24.50;53.70
42145;DHT22;27813;43.516;11.890;2023-07-08T20:29:05;24.40;54.00
42145;DHT22;27813;43.516;11.890;2023-07-08T20:33:13;24.20;54.60
42145;DHT22;27813;43.516;11.890;2023-07-08T20:37:18;24.10;55.10
42145;DHT22;27813;43.516;11.890;2023-07-08T20:41:22;24.00;55.30
42145;DHT22;27813;43.516;11.890;2023-07-08T20:45:31;23.90;55.60
42145;DHT22;27813;43.516;11.890;2023-07-08T20:49:36;23.80;56.40
42145;DHT22;27813;43.516;11.890;2023-07-08T20:53:41;23.80;56.60
42145;DHT22;27813;43.516;11.890;2023-07-08T20:57:46;23.80;56.80
42145;DHT22;27813;43.516;11.890;2023-07-08T21:01:53;23.70;57.20
42145;DHT22;27813;43.516;11.890;2023-07-08T21:06:01;23.70;57.50
42145;DHT22;27813;43.516;11.890;2023-07-08T21:10:08;23.50;58.00
42145;DHT22;27813;43.516;11.890;2023-07-08T21:14:16;23.40;58.80
42145;DHT22;27813;43.516;11.890;2023-07-08T21:18:23;23.10;59.60
42145;DHT22;27813;43.516;11.890;2023-07-08T21:22:32;23.00;60.00
42145;DHT22;27813;43.516;11.890;2023-07-08T21:26:36;23.00;60.40
42145;DHT22;27813;43.516;11.890;2023-07-08T21:30:39;23.10;60.40
42145;DHT22;27813;43.516;11.890;2023-07-08T21:34:43;23.20;60.40
42145;DHT22;27813;43.516;11.890;2023-07-08T21:38:53;23.00;60.90
42145;DHT22;27813;43.516;11.890;2023-07-08T21:42:59;23.10;61.60
42145;DHT22;27813;43.516;11.890;2023-07-08T21:47:04;23.30;61.40
42145;DHT22;27813;43.516;11.890;2023-07-08T21:51:37;23.40;61.00
42145;DHT22;27813;43.516;11.890;2023-07-08T21:55:42;23.30;61.10
42145;DHT22;27813;43.516;11.890;2023-07-08T21:59:46;23.20;61.30
42145;DHT22;27813;43.516;11.890;2023-07-08T22:03:50;23.10;61.50
42145;DHT22;27813;43.516;11.890;2023-07-08T22:07:57;23.00;61.70
42145;DHT22;27813;43.516;11.890;2023-07-08T22:12:01;22.80;62.10
42145;DHT22;27813;43.516;11.890;2023-07-08T22:16:10;22.70;62.30
42145;DHT22;27813;43.516;11.890;2023-07-08T22:20:19;22.60;62.60
42145;DHT22;27813;43.516;11.890;2023-07-08T22:24:23;22.60;62.80
42145;DHT22;27813;43.516;11.890;2023-07-08T22:28:27;22.50;63.20
42145;DHT22;27813;43.516;11.890;2023-07-08T22:32:31;22.50;63.60
42145;DHT22;27813;43.516;11.890;2023-07-08T22:36:35;22.40;63.70
42145;DHT22;27813;43.516;11.890;2023-07-08T22:40:45;22.40;63.70
42145;DHT22;27813;43.516;11.890;2023-07-08T22:44:51;22.30;63.80
42145;DHT22;27813;43.516;11.890;2023-07-08T22:48:55;22.10;64.10
42145;DHT22;27813;43.516;11.890;2023-07-08T22:53:01;22.00;64.60
42145;DHT22;27813;43.516;11.890;2023-07-08T22:57:06;21.90;64.90
42145;DHT22;27813;43.516;11.890;2023-07-08T23:01:10;21.70;65.10
42145;DHT22;27813;43.516;11.890;2023-07-08T23:05:17;21.50;65.40
42145;DHT22;27813;43.516;11.890;2023-07-08T23:09:21;21.50;65.90
42145;DHT22;27813;43.516;11.890;2023-07-08T23:13:35;21.40;66.40
42145;DHT22;27813;43.516;11.890;2023-07-08T23:17:42;21.20;67.00
42145;DHT22;27813;43.516;11.890;2023-07-08T23:21:46;21.10;67.40
42145;DHT22;27813;43.516;11.890;2023-07-08T23:25:50;21.00;67.60
42145;DHT22;27813;43.516;11.890;2023-07-08T23:29:54;20.80;67.90
